Medina, Brazil
Current Conditions -  °F | °C
As of 7:00 PM on Monday 24 Nov 2014 (Local Time) from SBQV Reporting Station
Few Clouds Few Clouds  
Wind Chill: 77°   Ceiling: Unl
Heat Index: 79°   Visibility: 6mi
Dew Point: 68°   Wind: 7mph
Humidity: 74%   Direction: 120°ESE
Pressure: 30.03"   Gusts: NA
Location:  16.25°S, 41.49°W
Report Text: SBQV 242100Z 12006KT 9999 FEW020 25/20 Q1017
Loading
Personal Weather Stations






























Interactive Weather Map New forecast layout! Learn more

10-Day Weather Forecast

Advertisements
Track Severe Weather on mobile